METAR AND TAF INFORMATION
METAR FOR SBFL
ADDS - METARS form results

(2102 UTC 17 February 2019)
Data provider http://aviationweather.gov/metar/data/
 
METAR text: SBFL 172045Z 15017G27KT 1500 R32/1500 R14/P2000 +RA SCT005 BKN010 22/22 Q1012 RETS
Conditions at: SBFL (FLORIANOPOLIS AR, BR) observed 2045 UTC 17 February 2019
Temperature: 22.0°C (72°F)
Dewpoint: 22.0°C (72°F) [RH = 100%]
Pressure (altimeter): 29.88 inches Hg (1012.0 mb)
Winds: from the SSE (150 degrees) at 20 MPH (17 knots; 8.7 m/s)
gusting to 31 MPH (27 knots; 13.9 m/s)
Visibility: 0.93 miles (1.50 km)
Ceiling: 1000 feet AGL
Clouds: scattered clouds at 500 feet AGL
broken clouds at 1000 feet AGL
Weather: +RA  (heavy rain)

METAR text: SBFL 172030Z 14013KT 2000 +RA SCT005 BKN010 23/22 Q1012 RETS
Conditions at: SBFL (FLORIANOPOLIS AR, BR) observed 2030 UTC 17 February 2019
Temperature: 23.0°C (73°F)
Dewpoint: 22.0°C (72°F) [RH = 94%]
Pressure (altimeter): 29.88 inches Hg (1012.0 mb)
Winds: from the SE (140 degrees) at 15 MPH (13 knots; 6.7 m/s)
Visibility: 1.24 miles (2.00 km)
Ceiling: 1000 feet AGL
Clouds: scattered clouds at 500 feet AGL
broken clouds at 1000 feet AGL
Weather: +RA  (heavy rain)

METAR text: SBFL 172003Z 17003KT 1500 R32/1600 R14/P2000 +TSRA SCT005 B KN010 FEW030CB 23/22 Q1012
Conditions at: SBFL (FLORIANOPOLIS AR, BR) observed 2003 UTC 17 February 2019
Temperature: 23.0°C (73°F)
Dewpoint: 22.0°C (72°F) [RH = 94%]
Pressure (altimeter): 29.88 inches Hg (1012.0 mb)
Winds: from the S (170 degrees) at 3 MPH (3 knots; 1.5 m/s)
Visibility: 0.93 miles (1.50 km)
Ceiling: at least 12,000 feet AGL
Clouds: scattered clouds at 500 feet AGL
few clouds at 3000 feet AGL
Weather: +TSRA  (heavy rain associated with thunderstorm(s))

Forecast for: SBFL (FLORIANOPOLIS AR, BR)
Text: TAF SBFL 171530Z 1718/1818 14010KT 9999 BKN020 FEW030TCU TX26/1718Z T N21/1807Z
Forecast period: 1800 UTC 17 February 2019 to 0000 UTC 18 February 2019
Forecast type: FROM: standard forecast or significant change
Winds: from the SE (140 degrees) at 12 MPH (10 knots; 5.1 m/s)
Visibility: 6 or more miles 10+ km)
Ceiling: 2000 feet AGL
Clouds: broken clouds at 2000 feet AGL
few clouds at 3000 feet AGL
Weather: no significant weather forecast for this period
Text: PROB40
Forecast period: 1800 to 2200 UTC 17 February 2019
Forecast type: TEMPORARY: The following changes expected for less than half the time period
Visibility: 5 miles (8 km)
Ceiling: unknown
Clouds: missing
Weather: SHRA  (rain showers)
Text: TEMPO 1718/1722 8000 SHRA
Forecast period: 0000 to 1300 UTC 18 February 2019
Forecast type: BECOMING: Conditions expected to become as follows by 0200 UTC 18 February 2019
Winds: from the SE (140 degrees) at 12 MPH (10 knots; 5.1 m/s)
Visibility: 2.49 miles (4.01 km)
Ceiling: 1000 feet AGL
Clouds: broken clouds at 1000 feet AGL
few clouds at 3000 feet AGL
Weather: SHRA  (rain showers)
Text: BECMG 1800/1802 4000 SHRA BKN010 BK N020 FEW030TCU
Forecast period: 1300 to 1800 UTC 18 February 2019
Forecast type: BECOMING: Conditions expected to become as follows by 1500 UTC 18 February 2019
Winds: from the SE (140 degrees) at 12 MPH (10 knots; 5.1 m/s)
Visibility: 5 miles (8 km)
Ceiling: 1500 feet AGL
Clouds: broken clouds at 1500 feet AGL
Weather: SHRA  (rain showers)

 AIRPORT MAP

 RUNWAY INFORMATION
Runway 14 Runway length 7546 ft Runway width 148 ft
Runway elevation 0 ft Runway displaced threshold 0 ft Runway heading 0
Runway 32 Runway length 7546 ft Runway width 148 ft
Runway elevation 0 ft Runway displaced threshold 0 ft Runway heading 0
Runway 3 Runway length 4921 ft Runway width 148 ft
Runway elevation 0 ft Runway displaced threshold 0 ft Runway heading 0
Runway 21 Runway length 4921 ft Runway width 148 ft
Runway elevation 0 ft Runway displaced threshold 0 ft Runway heading 0

 AIRPORT FREQUENCIES
Type APP Name FLORIANOPO Frequency 119.65 MHZ
Type ATIS Name ATIS Frequency 127.45 MHZ
Type GND Name GND Frequency 121.7 MHZ
Type OPS Name FLORIANOPO Frequency 122.5 MHZ
Type TWR Name FLORIANOPO Frequency 118.7 MHZ

 AIRPORT NEAR NAVIGATION AIDS
Type NDB Name Boko Frequency 380 KHZ
Type NDB Name Florianopolis Frequency 295 KHZ
Type NDB Name Cariano Frequency 350 KHZ
Type VOR-DME Name Florianopolis Frequency 117800 KHZ



Powered by Virtual Airlines Manager [v2.6.2]